Time;durP1;ratioP1;P1;durP2;ratioP2;P2;SDS_P1;SDS_P2;PMS_P1;PMS_P2;Temp;Humidity;BMP_temperature;BMP_pressure;BME280_temperature;BME280_humidity;BME280_pressure;Samples;Min_cycle;Max_cycle;Signal;HPM_P1;HPM_P2
2021/04/05 00:02:17;;;;;;;7.23;5.47;;;;;;;;;;4956145;29;20455;-82
2021/04/05 00:04:43;;;;;;;6.60;4.47;;;;;;;;;;4955919;29;20407;-80
2021/04/05 00:07:10;;;;;;;7.05;5.57;;;;;;;;;;4954821;28;20215;-80
2021/04/05 00:12:39;;;;;;;6.10;4.22;;;;;;;;;;4956572;29;20178;-81
2021/04/05 00:15:07;;;;;;;7.60;5.05;;;;;;;;;;4955979;29;20242;-76
2021/04/05 00:17:33;;;;;;;6.93;4.75;;;;;;;;;;4956345;29;20590;-78
2021/04/05 00:19:59;;;;;;;5.72;5.22;;;;;;;;;;4955741;29;20175;-82
2021/04/05 00:22:25;;;;;;;9.07;5.40;;;;;;;;;;4955988;29;20183;-77
2021/04/05 00:24:51;;;;;;;5.70;4.60;;;;;;;;;;4955689;29;20427;-77
2021/04/05 00:27:17;;;;;;;6.27;4.87;;;;;;;;;;4955736;29;20938;-79
2021/04/05 00:29:43;;;;;;;5.13;4.30;;;;;;;;;;4956061;29;20421;-85
2021/04/05 00:32:09;;;;;;;6.33;4.60;;;;;;;;;;4956024;29;20421;-77
2021/04/05 00:34:35;;;;;;;6.88;4.65;;;;;;;;;;4955568;29;20419;-81
2021/04/05 00:37:01;;;;;;;4.82;4.30;;;;;;;;;;4938781;29;20180;-79
2021/04/05 00:42:30;;;;;;;4.97;3.78;;;;;;;;;;4955782;29;20425;-79
2021/04/05 00:44:57;;;;;;;6.95;4.68;;;;;;;;;;4955541;29;20172;-81
2021/04/05 00:47:23;;;;;;;5.07;4.60;;;;;;;;;;4961754;29;20247;-74
2021/04/05 00:49:49;;;;;;;6.63;4.63;;;;;;;;;;4965120;29;20187;-77
2021/04/05 00:52:15;;;;;;;7.00;4.77;;;;;;;;;;4940754;29;20479;-83
2021/04/05 00:57:44;;;;;;;8.80;5.28;;;;;;;;;;4936536;29;20176;-81
2021/04/05 01:00:15;;;;;;;7.70;4.47;;;;;;;;;;4936274;29;20175;-83
2021/04/05 01:02:41;;;;;;;12.85;5.57;;;;;;;;;;4936304;29;20238;-82
2021/04/05 01:05:08;;;;;;;7.55;4.88;;;;;;;;;;4936036;29;20175;-78
2021/04/05 01:07:35;;;;;;;5.65;3.83;;;;;;;;;;4945554;29;20238;-73
2021/04/05 01:13:05;;;;;;;10.43;4.13;;;;;;;;;;4937240;29;20642;-84
2021/04/05 01:15:31;;;;;;;4.57;4.03;;;;;;;;;;4936263;29;20183;-85
2021/04/05 01:17:57;;;;;;;14.50;4.73;;;;;;;;;;4936097;29;20183;-82
2021/04/05 01:20:23;;;;;;;5.27;3.60;;;;;;;;;;4935836;29;20519;-83
2021/04/05 01:22:50;;;;;;;5.05;3.42;;;;;;;;;;4936084;29;20437;-82
2021/04/05 01:28:20;;;;;;;5.35;4.18;;;;;;;;;;4935699;29;20222;-81
2021/04/05 01:30:50;;;;;;;5.13;4.53;;;;;;;;;;4936115;29;20166;-83
2021/04/05 01:33:21;;;;;;;7.35;3.78;;;;;;;;;;4936118;29;20556;-79
2021/04/05 01:35:51;;;;;;;10.73;5.03;;;;;;;;;;4935730;29;20305;-85
2021/04/05 01:38:18;;;;;;;7.25;4.55;;;;;;;;;;4935392;29;20183;-84
2021/04/05 01:40:47;;;;;;;7.95;4.50;;;;;;;;;;4938354;29;20180;-76
2021/04/05 01:43:13;;;;;;;4.10;3.75;;;;;;;;;;4941844;29;20682;-76
2021/04/05 01:45:39;;;;;;;4.78;3.50;;;;;;;;;;4940002;29;20180;-81
2021/04/05 01:48:06;;;;;;;5.95;4.30;;;;;;;;;;4935698;29;20754;-79
2021/04/05 01:50:32;;;;;;;7.97;4.55;;;;;;;;;;4935256;29;20180;-83
2021/04/05 01:53:02;;;;;;;5.32;4.00;;;;;;;;;;4948125;29;20230;-80
2021/04/05 01:58:33;;;;;;;5.43;4.00;;;;;;;;;;4954859;29;20233;-84
2021/04/05 02:00:59;;;;;;;7.30;4.45;;;;;;;;;;4954659;29;20203;-82
2021/04/05 02:03:28;;;;;;;4.90;4.05;;;;;;;;;;4954709;29;20175;-79
2021/04/05 02:05:57;;;;;;;6.53;4.32;;;;;;;;;;4954260;29;20605;-77
2021/04/05 02:08:23;;;;;;;8.40;3.25;;;;;;;;;;4953501;29;20220;-78
2021/04/05 02:10:50;;;;;;;8.05;4.30;;;;;;;;;;4954190;29;20175;-79
2021/04/05 02:13:19;;;;;;;15.15;4.32;;;;;;;;;;4954499;29;20253;-78
2021/04/05 02:15:45;;;;;;;5.97;4.32;;;;;;;;;;4954204;29;20161;-78
2021/04/05 02:18:12;;;;;;;12.85;4.70;;;;;;;;;;4955118;29;20169;-84
2021/04/05 02:20:39;;;;;;;9.85;5.30;;;;;;;;;;4954836;29;20178;-79
2021/04/05 02:23:05;;;;;;;6.50;4.50;;;;;;;;;;4955027;29;20269;-81
2021/04/05 02:28:36;;;;;;;5.82;4.13;;;;;;;;;;4954711;29;20266;-80
2021/04/05 02:31:03;;;;;;;6.30;4.45;;;;;;;;;;4938765;29;20634;-79
2021/04/05 02:33:29;;;;;;;8.35;4.30;;;;;;;;;;4960318;29;20162;-75
2021/04/05 02:35:55;;;;;;;6.70;3.83;;;;;;;;;;4961872;29;20242;-78
2021/04/05 02:38:21;;;;;;;9.25;4.95;;;;;;;;;;4965099;29;20583;-75
2021/04/05 02:43:52;;;;;;;5.53;4.60;;;;;;;;;;4960090;29;20572;-79
2021/04/05 02:46:19;;;;;;;5.35;4.90;;;;;;;;;;4957987;29;20543;-81
2021/04/05 02:48:48;;;;;;;5.75;4.00;;;;;;;;;;4957837;29;20210;-82
2021/04/05 02:51:15;;;;;;;6.60;4.95;;;;;;;;;;4940459;29;20177;-80
2021/04/05 02:59:33;;;;;;;5.95;5.35;;;;;;;;;;4962830;29;20527;-83
2021/04/05 03:02:00;;;;;;;5.90;3.72;;;;;;;;;;4958279;29;20175;-84
2021/04/05 03:04:26;;;;;;;6.93;4.57;;;;;;;;;;4957835;29;20175;-82
2021/04/05 03:06:52;;;;;;;7.50;4.10;;;;;;;;;;4957727;29;20630;-82
2021/04/05 03:09:18;;;;;;;5.70;4.82;;;;;;;;;;4957266;29;20982;-82
2021/04/05 03:11:47;;;;;;;8.40;4.75;;;;;;;;;;4957561;29;20174;-79
2021/04/05 03:14:14;;;;;;;8.15;4.35;;;;;;;;;;4957449;29;20174;-78
2021/04/05 03:16:40;;;;;;;6.82;4.30;;;;;;;;;;4956921;29;20182;-82
2021/04/05 03:19:07;;;;;;;6.60;4.50;;;;;;;;;;4956619;29;20183;-82
2021/04/05 03:21:33;;;;;;;5.18;4.60;;;;;;;;;;4957328;29;20172;-83
2021/04/05 03:24:00;;;;;;;6.63;4.53;;;;;;;;;;4939749;29;20205;-83
2021/04/05 03:29:32;;;;;;;10.27;5.22;;;;;;;;;;4957011;29;20272;-83
2021/04/05 03:31:59;;;;;;;8.13;4.38;;;;;;;;;;4957181;29;20267;-80
2021/04/05 03:34:26;;;;;;;4.70;4.30;;;;;;;;;;4957091;29;20177;-83
2021/04/05 03:36:51;;;;;;;4.95;4.45;;;;;;;;;;4956845;29;20177;-81
2021/04/05 03:39:18;;;;;;;7.13;4.33;;;;;;;;;;4957024;29;20538;-79
2021/04/05 03:41:54;;;;;;;5.97;4.20;;;;;;;;;;4956753;28;20431;-82
2021/04/05 03:44:36;;;;;;;5.30;4.60;;;;;;;;;;4939918;29;20242;-74
2021/04/05 03:47:14;;;;;;;7.43;4.55;;;;;;;;;;4956778;29;20246;-79
2021/04/05 03:49:51;;;;;;;7.68;4.45;;;;;;;;;;4956217;29;20531;-79
2021/04/05 03:52:27;;;;;;;5.93;4.28;;;;;;;;;;4956426;29;20279;-78
2021/04/05 03:54:54;;;;;;;7.78;5.88;;;;;;;;;;4956613;29;20183;-76
2021/04/05 03:57:22;;;;;;;7.38;5.50;;;;;;;;;;4956657;29;20175;-79
2021/04/05 03:59:50;;;;;;;5.63;4.93;;;;;;;;;;4956621;29;20201;-79
2021/04/05 04:02:18;;;;;;;8.23;5.10;;;;;;;;;;4939258;29;20181;-75
2021/04/05 04:04:55;;;;;;;7.03;4.60;;;;;;;;;;4956443;29;20531;-81
2021/04/05 04:07:39;;;;;;;7.60;4.95;;;;;;;;;;4956065;29;20176;-80
2021/04/05 04:10:06;;;;;;;9.25;4.55;;;;;;;;;;4956337;29;20534;-76
2021/04/05 04:12:33;;;;;;;5.57;4.97;;;;;;;;;;4956209;29;20180;-83
2021/04/05 04:15:01;;;;;;;6.38;4.40;;;;;;;;;;4956424;29;20196;-73
2021/04/05 04:17:27;;;;;;;7.70;4.50;;;;;;;;;;4956281;29;20216;-81
2021/04/05 04:19:54;;;;;;;9.98;4.80;;;;;;;;;;4956091;29;20178;-78
2021/04/05 04:22:21;;;;;;;6.68;4.28;;;;;;;;;;4956010;29;20633;-78
2021/04/05 04:24:47;;;;;;;9.10;4.80;;;;;;;;;;4956348;29;20256;-79
2021/04/05 04:27:14;;;;;;;6.38;4.35;;;;;;;;;;4956440;29;20173;-84
2021/04/05 04:29:40;;;;;;;6.43;4.53;;;;;;;;;;4964683;29;20212;-78
2021/04/05 04:32:06;;;;;;;8.13;4.85;;;;;;;;;;4966536;29;20640;-74
2021/04/05 04:34:35;;;;;;;8.48;4.47;;;;;;;;;;4958141;29;20197;-79
2021/04/05 04:37:02;;;;;;;4.82;4.15;;;;;;;;;;4955998;29;20170;-82
2021/04/05 04:39:28;;;;;;;4.85;3.60;;;;;;;;;;4938154;29;20276;-74
2021/04/05 04:44:57;;;;;;;8.80;4.05;;;;;;;;;;4967988;29;20178;-73
2021/04/05 04:47:23;;;;;;;7.27;3.83;;;;;;;;;;4944066;29;20187;-80
2021/04/05 04:49:49;;;;;;;12.20;4.70;;;;;;;;;;4938649;29;20506;-80
2021/04/05 04:52:15;;;;;;;4.87;4.23;;;;;;;;;;4955367;29;20484;-81
2021/04/05 04:54:41;;;;;;;8.07;4.80;;;;;;;;;;4955128;28;20522;-80
2021/04/05 05:00:12;;;;;;;5.47;4.25;;;;;;;;;;4955279;29;20196;-82
2021/04/05 05:02:39;;;;;;;5.72;4.22;;;;;;;;;;4955660;29;20177;-78
2021/04/05 05:05:06;;;;;;;6.53;3.42;;;;;;;;;;4954691;29;20165;-84
2021/04/05 05:07:34;;;;;;;7.65;4.30;;;;;;;;;;4955104;29;20624;-82
2021/04/05 05:10:01;;;;;;;5.80;3.97;;;;;;;;;;4954971;29;20270;-82
2021/04/05 05:12:27;;;;;;;8.43;4.50;;;;;;;;;;4955433;29;20173;-78
2021/04/05 05:14:53;;;;;;;5.63;3.78;;;;;;;;;;4954982;29;20225;-81
2021/04/05 05:17:19;;;;;;;6.63;4.15;;;;;;;;;;4955060;29;20177;-81
2021/04/05 05:19:47;;;;;;;10.45;4.25;;;;;;;;;;4955206;29;20601;-77
2021/04/05 05:22:16;;;;;;;4.22;3.50;;;;;;;;;;4954842;29;20229;-80
2021/04/05 05:24:43;;;;;;;6.78;3.53;;;;;;;;;;4954994;29;20179;-74
2021/04/05 05:30:20;;;;;;;5.38;4.13;;;;;;;;;;4955341;29;20532;-81
2021/04/05 05:32:47;;;;;;;5.65;3.92;;;;;;;;;;4955385;29;20177;-81
2021/04/05 05:35:14;;;;;;;5.38;3.80;;;;;;;;;;4955323;29;20174;-82
2021/04/05 05:37:40;;;;;;;6.43;3.58;;;;;;;;;;4954445;29;20186;-83
2021/04/05 05:40:06;;;;;;;6.07;4.45;;;;;;;;;;4954521;29;20177;-82
2021/04/05 05:42:44;;;;;;;10.90;4.28;;;;;;;;;;4954800;29;20607;-76
2021/04/05 05:45:15;;;;;;;11.13;4.35;;;;;;;;;;4955505;29;20173;-82
2021/04/05 05:47:49;;;;;;;8.38;4.28;;;;;;;;;;4955390;29;20214;-83
2021/04/05 05:50:20;;;;;;;4.40;3.13;;;;;;;;;;4955345;29;20165;-81
2021/04/05 05:53:05;;;;;;;6.70;4.00;;;;;;;;;;4954662;29;20231;-74
2021/04/05 05:55:35;;;;;;;4.97;3.33;;;;;;;;;;4955812;29;20176;-80
2021/04/05 05:58:21;;;;;;;5.05;4.07;;;;;;;;;;4955344;29;20168;-80
2021/04/05 06:00:52;;;;;;;4.85;3.90;;;;;;;;;;4960427;29;20203;-77
2021/04/05 06:03:18;;;;;;;7.18;3.90;;;;;;;;;;4959289;29;20179;-76
2021/04/05 06:05:56;;;;;;;10.70;4.50;;;;;;;;;;4955798;28;20174;-77
2021/04/05 06:08:25;;;;;;;4.43;4.03;;;;;;;;;;4958625;29;20567;-82
2021/04/05 06:10:57;;;;;;;6.20;4.10;;;;;;;;;;4958200;29;20205;-76
2021/04/05 06:13:29;;;;;;;8.00;4.88;;;;;;;;;;4960612;29;20172;-74
2021/04/05 06:16:14;;;;;;;10.15;4.45;;;;;;;;;;4941599;29;20200;-83
2021/04/05 06:18:43;;;;;;;6.03;3.97;;;;;;;;;;4959451;29;20186;-80
2021/04/05 06:21:16;;;;;;;4.82;3.70;;;;;;;;;;4961353;29;20179;-82
2021/04/05 06:23:53;;;;;;;8.88;4.20;;;;;;;;;;4958920;29;20476;-74
2021/04/05 06:26:27;;;;;;;4.88;3.75;;;;;;;;;;4958389;29;20319;-79
2021/04/05 06:28:53;;;;;;;6.07;3.38;;;;;;;;;;4958083;29;20244;-75
2021/04/05 06:31:34;;;;;;;6.90;4.30;;;;;;;;;;4966360;29;20646;-75
2021/04/05 06:34:07;;;;;;;9.40;3.53;;;;;;;;;;4960404;29;20430;-83
2021/04/05 06:36:53;;;;;;;4.93;3.65;;;;;;;;;;4959009;29;20178;-82
2021/04/05 06:39:22;;;;;;;4.38;3.58;;;;;;;;;;4957969;29;20171;-79
2021/04/05 06:41:56;;;;;;;4.82;3.10;;;;;;;;;;4958275;29;20175;-83
2021/04/05 06:44:41;;;;;;;7.07;4.60;;;;;;;;;;4958069;29;20181;-82
2021/04/05 06:47:16;;;;;;;5.35;3.65;;;;;;;;;;4957777;29;20229;-84
2021/04/05 06:50:01;;;;;;;6.00;3.75;;;;;;;;;;4957611;29;20210;-79
2021/04/05 06:52:29;;;;;;;4.75;3.90;;;;;;;;;;4958845;29;20238;-91
2021/04/05 06:55:14;;;;;;;9.73;3.00;;;;;;;;;;4959733;29;20185;-82
2021/04/05 06:57:52;;;;;;;6.18;4.32;;;;;;;;;;4959276;29;20179;-87
2021/04/05 07:00:37;;;;;;;3.15;2.83;;;;;;;;;;4940273;29;20191;-85
2021/04/05 07:03:15;;;;;;;6.10;4.03;;;;;;;;;;4957227;29;20179;-83
2021/04/05 07:06:00;;;;;;;8.20;3.90;;;;;;;;;;4956952;29;20225;-80
2021/04/05 07:08:35;;;;;;;4.55;3.17;;;;;;;;;;4939630;29;20250;-81
2021/04/05 07:14:05;;;;;;;5.35;4.15;;;;;;;;;;4956791;29;20231;-80
2021/04/05 07:16:49;;;;;;;9.70;5.20;;;;;;;;;;4939352;29;20179;-79
2021/04/05 07:19:31;;;;;;;9.73;4.50;;;;;;;;;;4956754;29;20432;-83
2021/04/05 07:22:21;;;;;;;5.50;3.40;;;;;;;;;;4957393;29;20189;-79
2021/04/05 07:25:06;;;;;;;6.07;4.13;;;;;;;;;;4956801;29;20428;-81
2021/04/05 07:30:43;;;;;;;7.70;4.07;;;;;;;;;;4956390;29;20266;-81
2021/04/05 07:33:28;;;;;;;7.43;3.60;;;;;;;;;;4956682;29;20523;-74
2021/04/05 07:35:54;;;;;;;8.23;3.22;;;;;;;;;;4956896;29;20428;-73
2021/04/05 07:38:43;;;;;;;7.60;3.93;;;;;;;;;;4955800;29;20175;-84
2021/04/05 07:41:09;;;;;;;5.80;4.07;;;;;;;;;;4947367;29;20441;-79
2021/04/05 07:43:42;;;;;;;4.50;3.63;;;;;;;;;;4955927;29;20415;-81
2021/04/05 07:46:19;;;;;;;5.27;3.23;;;;;;;;;;4955828;29;20895;-77
2021/04/05 07:48:58;;;;;;;5.53;3.80;;;;;;;;;;4955689;29;20491;-81
2021/04/05 07:51:28;;;;;;;9.30;4.10;;;;;;;;;;4955238;28;20432;-82
2021/04/05 07:53:58;;;;;;;6.30;3.87;;;;;;;;;;4955353;29;20773;-83
2021/04/05 07:56:27;;;;;;;5.80;3.60;;;;;;;;;;4955793;29;20435;-82
2021/04/05 07:59:13;;;;;;;5.33;3.80;;;;;;;;;;4955333;29;20430;-82
2021/04/05 08:01:51;;;;;;;6.73;3.70;;;;;;;;;;4955567;29;20704;-80
2021/04/05 08:04:22;;;;;;;7.40;4.07;;;;;;;;;;4954946;29;20486;-83
2021/04/05 08:06:47;;;;;;;9.40;4.10;;;;;;;;;;4955530;29;20859;-83
2021/04/05 08:09:15;;;;;;;5.97;3.77;;;;;;;;;;4956769;29;20555;-82
2021/04/05 08:11:43;;;;;;;7.10;4.43;;;;;;;;;;4961497;29;20427;-80
2021/04/05 08:14:31;;;;;;;5.70;3.87;;;;;;;;;;4958178;29;20423;-80
2021/04/05 08:17:03;;;;;;;5.30;3.93;;;;;;;;;;4955101;29;20475;-79
2021/04/05 08:19:42;;;;;;;8.93;4.77;;;;;;;;;;4955439;29;20415;-77
2021/04/05 08:22:14;;;;;;;4.87;3.87;;;;;;;;;;4966349;29;20414;-73
2021/04/05 08:24:49;;;;;;;7.33;4.50;;;;;;;;;;4956770;29;20482;-83
2021/04/05 08:27:24;;;;;;;13.17;4.93;;;;;;;;;;4954948;28;20522;-78
2021/04/05 08:29:55;;;;;;;4.10;2.97;;;;;;;;;;4954099;29;20541;-77
2021/04/05 08:32:30;;;;;;;5.43;3.70;;;;;;;;;;4954357;29;20403;-78
2021/04/05 08:35:06;;;;;;;7.60;4.67;;;;;;;;;;4954515;29;20422;-79
2021/04/05 08:37:35;;;;;;;7.70;4.00;;;;;;;;;;4954522;29;20403;-81
2021/04/05 08:40:05;;;;;;;5.30;2.80;;;;;;;;;;4954194;29;20932;-82
2021/04/05 08:42:52;;;;;;;9.10;3.17;;;;;;;;;;4954055;29;20443;-80
2021/04/05 08:45:37;;;;;;;4.53;3.17;;;;;;;;;;4954250;29;20423;-80
2021/04/05 08:48:06;;;;;;;9.10;3.37;;;;;;;;;;4954357;29;20481;-82
2021/04/05 08:50:34;;;;;;;7.13;3.17;;;;;;;;;;4954039;29;20419;-81
2021/04/05 08:53:01;;;;;;;6.43;2.80;;;;;;;;;;4954078;29;20569;-81
2021/04/05 08:55:29;;;;;;;5.67;2.90;;;;;;;;;;4954005;29;20491;-83
2021/04/05 08:57:58;;;;;;;11.03;3.07;;;;;;;;;;4954031;29;20771;-83
2021/04/05 09:00:25;;;;;;;3.80;2.80;;;;;;;;;;4953796;29;20419;-78
2021/04/05 09:02:56;;;;;;;4.30;3.13;;;;;;;;;;4953568;29;20438;-78
2021/04/05 09:05:23;;;;;;;6.43;2.73;;;;;;;;;;4948579;29;20928;-82
2021/04/05 09:08:06;;;;;;;5.70;2.93;;;;;;;;;;4952753;29;20466;-80
2021/04/05 09:10:42;;;;;;;8.93;2.33;;;;;;;;;;4953475;29;20548;-79
2021/04/05 09:13:13;;;;;;;9.53;2.97;;;;;;;;;;4935416;29;20435;-81
2021/04/05 09:15:52;;;;;;;4.13;2.47;;;;;;;;;;4951521;29;20428;-81
2021/04/05 09:18:18;;;;;;;5.27;2.57;;;;;;;;;;4952207;29;20509;-75
2021/04/05 09:20:47;;;;;;;5.10;2.40;;;;;;;;;;4952250;29;20494;-80
2021/04/05 09:23:31;;;;;;;3.10;2.30;;;;;;;;;;4935505;29;20434;-77
2021/04/05 09:26:00;;;;;;;6.90;3.10;;;;;;;;;;4952473;29;20513;-79
2021/04/05 09:28:39;;;;;;;4.30;1.93;;;;;;;;;;4952718;29;21048;-80
2021/04/05 09:31:28;;;;;;;8.67;2.87;;;;;;;;;;4952593;29;20500;-73
2021/04/05 09:33:55;;;;;;;7.87;3.50;;;;;;;;;;4952183;29;21218;-78
2021/04/05 09:36:41;;;;;;;4.33;2.70;;;;;;;;;;4951535;29;20414;-79
2021/04/05 09:39:07;;;;;;;7.93;3.27;;;;;;;;;;4934284;28;20447;-80
2021/04/05 09:41:42;;;;;;;4.13;2.57;;;;;;;;;;4952103;29;20422;-75
2021/04/05 09:44:27;;;;;;;5.73;2.70;;;;;;;;;;4952649;29;20457;-76
2021/04/05 09:46:56;;;;;;;2.73;2.33;;;;;;;;;;4951472;29;20944;-73
2021/04/05 09:49:45;;;;;;;3.90;2.50;;;;;;;;;;4952182;29;20477;-77
2021/04/05 09:52:30;;;;;;;7.80;2.10;;;;;;;;;;4944644;29;20474;-76
2021/04/05 09:55:11;;;;;;;4.30;2.07;;;;;;;;;;4952776;29;20433;-77
2021/04/05 10:00:40;;;;;;;4.53;3.07;;;;;;;;;;4952566;29;20471;-79
2021/04/05 10:03:07;;;;;;;7.53;3.00;;;;;;;;;;4935127;29;20437;-75
2021/04/05 10:05:34;;;;;;;6.57;2.77;;;;;;;;;;4951632;29;20516;-79
2021/04/05 10:08:01;;;;;;;4.73;2.63;;;;;;;;;;4951156;29;20809;-78
2021/04/05 10:10:28;;;;;;;5.17;2.70;;;;;;;;;;4951744;29;20435;-75
2021/04/05 10:15:58;;;;;;;3.30;2.53;;;;;;;;;;4951775;29;20530;-74
2021/04/05 10:18:25;;;;;;;4.87;2.93;;;;;;;;;;4951285;29;20427;-76
2021/04/05 10:20:52;;;;;;;9.60;2.87;;;;;;;;;;4951357;29;20426;-75
2021/04/05 10:23:20;;;;;;;8.80;2.90;;;;;;;;;;4954652;29;20415;-76
2021/04/05 10:25:51;;;;;;;3.70;3.07;;;;;;;;;;4953674;29;20517;-81
2021/04/05 10:31:23;;;;;;;5.60;3.27;;;;;;;;;;4952488;29;20423;-78
2021/04/05 10:33:51;;;;;;;5.80;3.30;;;;;;;;;;4953542;29;20412;-78
2021/04/05 10:36:20;;;;;;;3.70;3.40;;;;;;;;;;4952751;29;20421;-82
2021/04/05 10:38:46;;;;;;;4.50;3.07;;;;;;;;;;4952935;29;20516;-78
2021/04/05 10:41:13;;;;;;;8.60;3.93;;;;;;;;;;4953020;29;20473;-73
2021/04/05 10:46:43;;;;;;;7.90;3.10;;;;;;;;;;4953512;29;20469;-73
2021/04/05 10:49:10;;;;;;;3.93;2.67;;;;;;;;;;4952962;29;20525;-79
2021/04/05 10:51:39;;;;;;;6.00;2.70;;;;;;;;;;4954207;28;20450;-79
2021/04/05 10:54:07;;;;;;;4.13;2.40;;;;;;;;;;4956169;29;20441;-76
2021/04/05 10:56:35;;;;;;;3.70;2.40;;;;;;;;;;4956155;29;20413;-80
2021/04/05 11:02:29;;;;;;;12.37;3.27;;;;;;;;;;4956048;29;20432;-80
2021/04/05 11:04:56;;;;;;;4.90;2.73;;;;;;;;;;4928828;29;20466;-81
2021/04/05 11:07:23;;;;;;;5.07;2.50;;;;;;;;;;4956085;29;20421;-74
2021/04/05 11:09:51;;;;;;;3.40;2.53;;;;;;;;;;4956329;29;20477;-78
2021/04/05 11:12:18;;;;;;;4.90;2.63;;;;;;;;;;4956647;29;20418;-80
2021/04/05 11:17:49;;;;;;;5.63;2.90;;;;;;;;;;4957219;29;20751;-79
2021/04/05 11:20:17;;;;;;;7.97;2.90;;;;;;;;;;4956839;29;20835;-79
2021/04/05 11:22:43;;;;;;;3.57;2.40;;;;;;;;;;4939675;29;20434;-78
2021/04/05 11:25:22;;;;;;;6.83;2.80;;;;;;;;;;4956985;29;20426;-79
2021/04/05 11:27:50;;;;;;;2.50;2.30;;;;;;;;;;4957364;29;20803;-77
2021/04/05 11:33:25;;;;;;;4.13;2.43;;;;;;;;;;4956941;29;20436;-78
2021/04/05 11:35:54;;;;;;;4.40;2.63;;;;;;;;;;4956760;29;20535;-80
2021/04/05 11:38:21;;;;;;;5.60;2.90;;;;;;;;;;4956806;29;20473;-77
2021/04/05 11:40:48;;;;;;;3.50;3.20;;;;;;;;;;4956789;29;20422;-77
2021/04/05 11:49:07;;;;;;;11.70;3.80;;;;;;;;;;4956345;29;20564;-80
2021/04/05 11:51:45;;;;;;;6.07;4.03;;;;;;;;;;4956712;29;20430;-81
2021/04/05 11:54:34;;;;;;;9.03;3.37;;;;;;;;;;4956507;29;20855;-79
2021/04/05 11:57:04;;;;;;;5.00;4.13;;;;;;;;;;4956885;29;20431;-76
2021/04/05 11:59:32;;;;;;;6.70;3.23;;;;;;;;;;4956768;29;20890;-80
2021/04/05 12:02:07;;;;;;;3.77;2.77;;;;;;;;;;4956693;28;20427;-77
2021/04/05 12:04:35;;;;;;;9.63;4.23;;;;;;;;;;4956331;29;20530;-75
2021/04/05 12:07:07;;;;;;;6.13;3.63;;;;;;;;;;4938971;29;21021;-75
2021/04/05 12:09:44;;;;;;;6.60;4.33;;;;;;;;;;4956474;29;20479;-78
2021/04/05 12:12:16;;;;;;;5.47;4.00;;;;;;;;;;4956564;29;20451;-80
2021/04/05 12:14:44;;;;;;;12.60;4.67;;;;;;;;;;4956727;29;20419;-82
2021/04/05 12:17:10;;;;;;;7.07;4.90;;;;;;;;;;4956572;29;20934;-79
2021/04/05 12:19:42;;;;;;;6.90;4.43;;;;;;;;;;4938711;29;20997;-77
2021/04/05 12:22:09;;;;;;;9.40;5.13;;;;;;;;;;4957996;29;20415;-75
2021/04/05 12:24:36;;;;;;;7.70;4.90;;;;;;;;;;4961371;29;20496;-80
2021/04/05 12:27:04;;;;;;;5.93;3.60;;;;;;;;;;4957193;29;20426;-79
2021/04/05 12:29:31;;;;;;;8.77;4.07;;;;;;;;;;4956268;29;20481;-80
2021/04/05 12:31:58;;;;;;;7.40;4.40;;;;;;;;;;4956199;29;20468;-79
2021/04/05 12:34:32;;;;;;;10.73;4.40;;;;;;;;;;4955935;29;20438;-80
2021/04/05 12:36:59;;;;;;;10.37;4.83;;;;;;;;;;4955870;29;20423;-81
2021/04/05 12:39:29;;;;;;;7.10;5.30;;;;;;;;;;4955888;29;20437;-82
2021/04/05 12:41:56;;;;;;;7.90;5.63;;;;;;;;;;4956017;29;20421;-81
2021/04/05 12:44:29;;;;;;;7.00;4.87;;;;;;;;;;4955822;29;20445;-80
2021/04/05 12:46:58;;;;;;;6.40;4.37;;;;;;;;;;4938517;29;20436;-80
2021/04/05 12:49:29;;;;;;;10.50;5.73;;;;;;;;;;4955605;29;20996;-79
2021/04/05 12:52:00;;;;;;;9.67;5.43;;;;;;;;;;4955605;29;20505;-76
2021/04/05 12:54:27;;;;;;;10.67;5.97;;;;;;;;;;4955660;29;20426;-83
2021/04/05 12:56:54;;;;;;;9.80;6.20;;;;;;;;;;4955686;29;20432;-77
2021/04/05 12:59:27;;;;;;;10.93;6.13;;;;;;;;;;4955608;29;20441;-81
2021/04/05 13:01:54;;;;;;;14.03;6.37;;;;;;;;;;4955536;29;20422;-80
2021/04/05 13:04:22;;;;;;;9.80;6.30;;;;;;;;;;4955433;29;20450;-78
2021/04/05 13:07:03;;;;;;;13.93;6.87;;;;;;;;;;4955311;29;20430;-81
2021/04/05 13:09:40;;;;;;;11.23;6.43;;;;;;;;;;4955250;29;20787;-81
2021/04/05 13:12:15;;;;;;;12.70;6.90;;;;;;;;;;4955230;29;20419;-80
2021/04/05 13:14:56;;;;;;;9.97;5.50;;;;;;;;;;4954765;28;20429;-80
2021/04/05 13:17:29;;;;;;;11.77;7.60;;;;;;;;;;4955373;29;20778;-81
2021/04/05 13:20:02;;;;;;;9.77;6.70;;;;;;;;;;4954917;29;20418;-80
2021/04/05 13:22:29;;;;;;;11.03;6.43;;;;;;;;;;4955231;29;20511;-80
2021/04/05 13:25:08;;;;;;;11.40;7.27;;;;;;;;;;4954982;29;20416;-82
2021/04/05 13:27:35;;;;;;;11.97;6.30;;;;;;;;;;4955026;29;20427;-81
2021/04/05 13:30:02;;;;;;;12.27;6.80;;;;;;;;;;4954824;29;20552;-80
2021/04/05 13:32:34;;;;;;;14.67;7.37;;;;;;;;;;4954894;29;20417;-79
2021/04/05 13:35:03;;;;;;;14.33;7.07;;;;;;;;;;4954585;29;20484;-77
2021/04/05 13:37:30;;;;;;;14.43;8.27;;;;;;;;;;4954599;29;20454;-80
2021/04/05 13:39:56;;;;;;;12.13;7.30;;;;;;;;;;4954924;29;20427;-80
2021/04/05 13:42:26;;;;;;;14.60;8.03;;;;;;;;;;4954813;29;20847;-79
2021/04/05 13:44:53;;;;;;;18.73;6.90;;;;;;;;;;4954924;29;20426;-74
2021/04/05 13:47:30;;;;;;;10.73;6.40;;;;;;;;;;4954816;29;20421;-76
2021/04/05 13:50:00;;;;;;;14.30;7.27;;;;;;;;;;4954697;29;20825;-78
2021/04/05 13:52:28;;;;;;;14.80;8.20;;;;;;;;;;4954604;29;20594;-80
2021/04/05 13:54:55;;;;;;;12.20;7.77;;;;;;;;;;4954783;29;20418;-76
2021/04/05 13:57:21;;;;;;;16.70;7.60;;;;;;;;;;4954680;29;20489;-76
2021/04/05 14:00:05;;;;;;;11.93;7.50;;;;;;;;;;4954597;29;20425;-76
2021/04/05 14:02:33;;;;;;;10.03;7.30;;;;;;;;;;4954752;29;20884;-79
2021/04/05 14:05:02;;;;;;;15.17;9.60;;;;;;;;;;4954584;29;20412;-81
2021/04/05 14:07:36;;;;;;;14.50;7.07;;;;;;;;;;4954365;29;20448;-75
2021/04/05 14:10:03;;;;;;;10.73;5.93;;;;;;;;;;4953610;29;20475;-81
2021/04/05 14:12:31;;;;;;;14.67;6.90;;;;;;;;;;4954321;29;20903;-78
2021/04/05 14:14:58;;;;;;;10.10;6.80;;;;;;;;;;4953954;29;20434;-78
2021/04/05 14:17:37;;;;;;;10.97;6.37;;;;;;;;;;4954306;29;20431;-77
2021/04/05 14:20:07;;;;;;;10.53;6.90;;;;;;;;;;4953956;29;20428;-78
2021/04/05 14:22:42;;;;;;;8.67;6.30;;;;;;;;;;4959100;29;20432;-75
2021/04/05 14:25:22;;;;;;;13.10;6.33;;;;;;;;;;4940526;28;20795;-83
2021/04/05 14:27:54;;;;;;;13.17;7.10;;;;;;;;;;4956928;29;20497;-78
2021/04/05 14:30:25;;;;;;;7.00;6.30;;;;;;;;;;4940952;29;20512;-81
2021/04/05 14:32:56;;;;;;;9.40;6.60;;;;;;;;;;4956813;29;20768;-82
2021/04/05 14:35:27;;;;;;;8.33;6.10;;;;;;;;;;4956501;29;20479;-80
2021/04/05 14:37:56;;;;;;;8.80;6.40;;;;;;;;;;4956970;29;20420;-77
2021/04/05 14:40:23;;;;;;;13.07;5.80;;;;;;;;;;4940036;29;20547;-77
2021/04/05 14:42:54;;;;;;;11.67;5.20;;;;;;;;;;4957197;29;20440;-78
2021/04/05 14:45:22;;;;;;;9.03;6.30;;;;;;;;;;4956342;29;20423;-77
2021/04/05 14:47:54;;;;;;;10.13;6.13;;;;;;;;;;4956413;29;20503;-73
2021/04/05 14:50:40;;;;;;;7.63;6.47;;;;;;;;;;4956002;29;20594;-77
2021/04/05 14:53:14;;;;;;;8.17;5.40;;;;;;;;;;4946062;28;20487;-79
2021/04/05 14:55:45;;;;;;;6.50;5.40;;;;;;;;;;4956280;29;20431;-78
2021/04/05 14:58:20;;;;;;;8.30;4.87;;;;;;;;;;4956673;29;20428;-76
2021/04/05 15:00:54;;;;;;;10.03;6.47;;;;;;;;;;4956158;29;20430;-73
2021/04/05 15:03:28;;;;;;;11.73;5.83;;;;;;;;;;4956886;29;20431;-79
2021/04/05 15:05:56;;;;;;;5.90;4.77;;;;;;;;;;4955876;29;20513;-76
2021/04/05 15:08:49;;;;;;;7.87;5.73;;;;;;;;;;4956241;29;20751;-74
2021/04/05 15:11:16;;;;;;;7.17;5.90;;;;;;;;;;4954101;29;20438;-75
2021/04/05 15:13:47;;;;;;;8.57;6.40;;;;;;;;;;4957012;29;20424;-77
2021/04/05 15:16:18;;;;;;;8.23;5.70;;;;;;;;;;4956358;29;20431;-81
2021/04/05 15:18:44;;;;;;;10.70;5.50;;;;;;;;;;4956134;29;20507;-79
2021/04/05 15:21:11;;;;;;;13.37;7.00;;;;;;;;;;4956000;29;20411;-78
2021/04/05 15:23:39;;;;;;;4.70;3.50;;;;;;;;;;4956258;29;20906;-77
2021/04/05 15:26:07;;;;;;;5.70;3.72;;;;;;;;;;4956676;29;20578;-78
2021/04/05 15:28:36;;;;;;;6.38;4.22;;;;;;;;;;4957443;29;20655;-74
2021/04/05 15:31:03;;;;;;;5.07;3.42;;;;;;;;;;4956325;29;20279;-77
2021/04/05 15:33:40;;;;;;;2.75;1.90;;;;;;;;;;4955769;29;20326;-77
2021/04/05 15:36:06;;;;;;;1.58;0.80;;;;;;;;;;4956557;29;20471;-77
2021/04/05 15:38:37;;;;;;;1.17;0.93;;;;;;;;;;4957540;28;20187;-78
2021/04/05 15:41:04;;;;;;;0.52;0.52;;;;;;;;;;4939706;29;20513;-75
2021/04/05 15:43:32;;;;;;;2.25;0.70;;;;;;;;;;4939279;29;20668;-78
2021/04/05 15:46:20;;;;;;;0.68;0.52;;;;;;;;;;4956562;29;20170;-78
2021/04/05 15:48:49;;;;;;;0.60;0.60;;;;;;;;;;4956681;29;20590;-77
2021/04/05 15:51:33;;;;;;;0.93;0.93;;;;;;;;;;4939583;29;20183;-79
2021/04/05 15:54:02;;;;;;;0.63;0.63;;;;;;;;;;4956422;29;20699;-78
2021/04/05 15:56:30;;;;;;;0.73;0.60;;;;;;;;;;4956770;29;20172;-80
2021/04/05 15:58:57;;;;;;;2.08;1.98;;;;;;;;;;4956241;29;20201;-81
2021/04/05 16:01:28;;;;;;;1.65;0.88;;;;;;;;;;4956627;29;20172;-80
2021/04/05 16:03:54;;;;;;;0.77;0.77;;;;;;;;;;4956209;29;20528;-77
2021/04/05 16:06:24;;;;;;;1.17;1.08;;;;;;;;;;4955903;29;20266;-78
2021/04/05 16:08:52;;;;;;;0.82;0.82;;;;;;;;;;4956414;29;20565;-80
2021/04/05 16:11:22;;;;;;;1.25;0.85;;;;;;;;;;4956213;29;20180;-76
2021/04/05 16:13:50;;;;;;;1.38;0.88;;;;;;;;;;4955794;29;20247;-76
2021/04/05 16:16:18;;;;;;;1.02;0.98;;;;;;;;;;4938565;29;20554;-73
2021/04/05 16:19:01;;;;;;;0.90;0.90;;;;;;;;;;4961945;29;20175;-78